sensor_id;sensor_type;location;lat;lon;timestamp;pressure;altitude;pressure_sealevel;temperature;humidity
31044;BME280;17710;52.520;13.352;2022-09-09T00:01:08;100697.28;;;20.50;66.43
31044;BME280;17710;52.520;13.352;2022-09-09T00:03:42;100706.47;;;20.59;66.09
31044;BME280;17710;52.520;13.352;2022-09-09T00:06:20;100700.59;;;20.54;66.04
31044;BME280;17710;52.520;13.352;2022-09-09T00:08:59;100701.09;;;20.59;65.98
31044;BME280;17710;52.520;13.352;2022-09-09T00:11:30;100700.22;;;20.58;65.52
31044;BME280;17710;52.520;13.352;2022-09-09T00:14:03;100703.97;;;20.34;66.46
31044;BME280;17710;52.520;13.352;2022-09-09T00:16:36;100691.66;;;20.42;66.06
31044;BME280;17710;52.520;13.352;2022-09-09T00:19:07;100693.03;;;20.59;65.32
31044;BME280;17710;52.520;13.352;2022-09-09T00:21:45;100696.44;;;20.50;65.67
31044;BME280;17710;52.520;13.352;2022-09-09T00:24:24;100692.94;;;20.25;66.53
31044;BME280;17710;52.520;13.352;2022-09-09T00:26:56;100697.53;;;20.23;66.98
31044;BME280;17710;52.520;13.352;2022-09-09T00:29:30;100692.44;;;20.20;66.97
31044;BME280;17710;52.520;13.352;2022-09-09T00:32:09;100691.31;;;20.23;66.85
31044;BME280;17710;52.520;13.352;2022-09-09T00:34:46;100686.09;;;20.21;66.73
31044;BME280;17710;52.520;13.352;2022-09-09T00:37:13;100689.50;;;20.23;66.62
31044;BME280;17710;52.520;13.352;2022-09-09T00:39:45;100687.38;;;20.16;66.95
31044;BME280;17710;52.520;13.352;2022-09-09T00:42:14;100683.53;;;20.20;66.54
31044;BME280;17710;52.520;13.352;2022-09-09T00:44:52;100684.50;;;20.30;66.23
31044;BME280;17710;52.520;13.352;2022-09-09T00:47:49;100682.78;;;20.29;66.43
31044;BME280;17710;52.520;13.352;2022-09-09T00:50:35;100685.72;;;20.15;66.57
31044;BME280;17710;52.520;13.352;2022-09-09T00:53:15;100687.25;;;20.06;66.58
31044;BME280;17710;52.520;13.352;2022-09-09T00:55:53;100691.22;;;20.24;66.06
31044;BME280;17710;52.520;13.352;2022-09-09T00:58:21;100690.28;;;20.37;65.75
31044;BME280;17710;52.520;13.352;2022-09-09T01:00:52;100691.69;;;20.29;65.64
31044;BME280;17710;52.520;13.352;2022-09-09T01:03:33;100688.53;;;20.24;65.84
31044;BME280;17710;52.520;13.352;2022-09-09T01:06:10;100691.06;;;20.15;66.03
31044;BME280;17710;52.520;13.352;2022-09-09T01:08:48;100694.66;;;20.03;66.78
31044;BME280;17710;52.520;13.352;2022-09-09T01:11:22;100701.44;;;19.96;66.90
31044;BME280;17710;52.520;13.352;2022-09-09T01:13:56;100702.28;;;19.61;68.16
31044;BME280;17710;52.520;13.352;2022-09-09T01:16:27;100700.91;;;19.79;67.44
31044;BME280;17710;52.520;13.352;2022-09-09T01:18:56;100701.13;;;19.76;67.45
31044;BME280;17710;52.520;13.352;2022-09-09T01:21:31;100689.44;;;19.54;67.83
31044;BME280;17710;52.520;13.352;2022-09-09T01:24:13;100695.09;;;19.85;67.36
31044;BME280;17710;52.520;13.352;2022-09-09T01:26:44;100698.66;;;19.97;66.82
31044;BME280;17710;52.520;13.352;2022-09-09T01:29:14;100696.09;;;19.96;66.21
31044;BME280;17710;52.520;13.352;2022-09-09T01:31:50;100691.78;;;19.45;67.73
31044;BME280;17710;52.520;13.352;2022-09-09T01:34:18;100692.00;;;19.79;66.81
31044;BME280;17710;52.520;13.352;2022-09-09T01:36:48;100688.88;;;19.61;67.24
31044;BME280;17710;52.520;13.352;2022-09-09T01:39:18;100693.25;;;19.86;66.52
31044;BME280;17710;52.520;13.352;2022-09-09T01:41:48;100693.44;;;19.72;66.70
31044;BME280;17710;52.520;13.352;2022-09-09T01:44:20;100691.50;;;19.74;66.66
31044;BME280;17710;52.520;13.352;2022-09-09T01:46:47;100690.81;;;19.59;67.07
31044;BME280;17710;52.520;13.352;2022-09-09T01:49:18;100700.25;;;19.52;67.37
31044;BME280;17710;52.520;13.352;2022-09-09T01:51:46;100697.78;;;19.36;67.55
31044;BME280;17710;52.520;13.352;2022-09-09T01:54:14;100694.44;;;19.58;67.28
31044;BME280;17710;52.520;13.352;2022-09-09T01:56:50;100687.16;;;19.60;67.13
31044;BME280;17710;52.520;13.352;2022-09-09T01:59:42;100687.06;;;19.62;66.76
31044;BME280;17710;52.520;13.352;2022-09-09T02:02:13;100687.25;;;19.59;66.54
31044;BME280;17710;52.520;13.352;2022-09-09T02:04:48;100688.91;;;19.72;66.25
31044;BME280;17710;52.520;13.352;2022-09-09T02:07:39;100695.66;;;19.78;66.05
31044;BME280;17710;52.520;13.352;2022-09-09T02:10:11;100692.97;;;19.78;65.62
31044;BME280;17710;52.520;13.352;2022-09-09T02:12:43;100686.19;;;19.61;66.61
31044;BME280;17710;52.520;13.352;2022-09-09T02:15:17;100697.97;;;19.59;66.24
31044;BME280;17710;52.520;13.352;2022-09-09T02:17:46;100690.69;;;19.61;66.08
31044;BME280;17710;52.520;13.352;2022-09-09T02:20:14;100707.69;;;19.48;66.30
31044;BME280;17710;52.520;13.352;2022-09-09T02:22:44;100707.28;;;19.17;67.11
31044;BME280;17710;52.520;13.352;2022-09-09T02:25:14;100703.47;;;19.44;66.86
31044;BME280;17710;52.520;13.352;2022-09-09T02:27:45;100705.97;;;19.47;66.23
31044;BME280;17710;52.520;13.352;2022-09-09T02:30:12;100709.97;;;19.66;65.83
31044;BME280;17710;52.520;13.352;2022-09-09T02:32:41;100700.34;;;19.50;66.52
31044;BME280;17710;52.520;13.352;2022-09-09T02:35:14;100701.41;;;19.61;65.97
31044;BME280;17710;52.520;13.352;2022-09-09T02:37:42;100696.50;;;19.42;66.31
31044;BME280;17710;52.520;13.352;2022-09-09T02:40:12;100696.63;;;19.53;65.52
31044;BME280;17710;52.520;13.352;2022-09-09T02:42:40;100697.56;;;19.52;65.81
31044;BME280;17710;52.520;13.352;2022-09-09T02:45:10;100697.94;;;19.35;66.06
31044;BME280;17710;52.520;13.352;2022-09-09T02:47:40;100692.47;;;19.49;66.17
31044;BME280;17710;52.520;13.352;2022-09-09T02:50:13;100699.66;;;19.72;64.97
31044;BME280;17710;52.520;13.352;2022-09-09T02:52:54;100697.13;;;19.45;65.59
31044;BME280;17710;52.520;13.352;2022-09-09T02:55:28;100701.03;;;19.41;65.69
31044;BME280;17710;52.520;13.352;2022-09-09T02:58:03;100708.50;;;19.36;65.93
31044;BME280;17710;52.520;13.352;2022-09-09T03:00:35;100697.13;;;19.45;65.71
31044;BME280;17710;52.520;13.352;2022-09-09T03:03:02;100694.56;;;19.44;65.45
31044;BME280;17710;52.520;13.352;2022-09-09T03:05:29;100693.03;;;19.65;64.88
31044;BME280;17710;52.520;13.352;2022-09-09T03:07:57;100701.41;;;19.61;64.79
31044;BME280;17710;52.520;13.352;2022-09-09T03:10:23;100703.03;;;19.50;64.76
31044;BME280;17710;52.520;13.352;2022-09-09T03:12:50;100705.97;;;19.47;65.34
31044;BME280;17710;52.520;13.352;2022-09-09T03:15:17;100704.88;;;19.37;65.43
31044;BME280;17710;52.520;13.352;2022-09-09T03:17:45;100713.69;;;19.27;65.65
31044;BME280;17710;52.520;13.352;2022-09-09T03:20:15;100717.00;;;19.30;65.32
31044;BME280;17710;52.520;13.352;2022-09-09T03:22:42;100714.97;;;19.34;65.22
31044;BME280;17710;52.520;13.352;2022-09-09T03:25:09;100732.09;;;19.31;65.47
31044;BME280;17710;52.520;13.352;2022-09-09T03:27:37;100732.34;;;19.28;65.60
31044;BME280;17710;52.520;13.352;2022-09-09T03:30:07;100719.28;;;19.11;65.86
31044;BME280;17710;52.520;13.352;2022-09-09T03:32:34;100727.06;;;19.39;65.17
31044;BME280;17710;52.520;13.352;2022-09-09T03:35:02;100724.03;;;19.44;65.08
31044;BME280;17710;52.520;13.352;2022-09-09T03:37:28;100729.97;;;19.24;65.25
31044;BME280;17710;52.520;13.352;2022-09-09T03:39:55;100726.66;;;19.33;65.08
31044;BME280;17710;52.520;13.352;2022-09-09T03:42:21;100720.13;;;19.24;65.27
31044;BME280;17710;52.520;13.352;2022-09-09T03:44:48;100726.84;;;19.42;64.72
31044;BME280;17710;52.520;13.352;2022-09-09T03:47:16;100732.06;;;19.57;64.24
31044;BME280;17710;52.520;13.352;2022-09-09T03:49:43;100729.13;;;19.48;64.08
31044;BME280;17710;52.520;13.352;2022-09-09T03:52:11;100728.69;;;19.17;64.96
31044;BME280;17710;52.520;13.352;2022-09-09T03:54:37;100734.56;;;19.34;64.92
31044;BME280;17710;52.520;13.352;2022-09-09T03:57:04;100731.03;;;19.46;64.46
31044;BME280;17710;52.520;13.352;2022-09-09T03:59:34;100731.66;;;19.50;64.34
31044;BME280;17710;52.520;13.352;2022-09-09T04:02:01;100731.13;;;19.45;64.08
31044;BME280;17710;52.520;13.352;2022-09-09T04:04:28;100724.91;;;19.44;63.89
31044;BME280;17710;52.520;13.352;2022-09-09T04:06:57;100727.19;;;19.25;64.75
31044;BME280;17710;52.520;13.352;2022-09-09T04:09:25;100725.41;;;19.13;65.29
31044;BME280;17710;52.520;13.352;2022-09-09T04:11:51;100721.34;;;19.44;64.13
31044;BME280;17710;52.520;13.352;2022-09-09T04:14:22;100719.47;;;19.46;64.04
31044;BME280;17710;52.520;13.352;2022-09-09T04:16:53;100718.28;;;19.25;64.73
31044;BME280;17710;52.520;13.352;2022-09-09T04:19:19;100724.44;;;19.14;64.74
31044;BME280;17710;52.520;13.352;2022-09-09T04:21:46;100720.13;;;19.24;64.65
31044;BME280;17710;52.520;13.352;2022-09-09T04:24:18;100720.78;;;19.15;65.01
31044;BME280;17710;52.520;13.352;2022-09-09T04:26:46;100724.81;;;19.33;64.16
31044;BME280;17710;52.520;13.352;2022-09-09T04:29:12;100721.22;;;19.22;64.44
31044;BME280;17710;52.520;13.352;2022-09-09T04:31:39;100731.53;;;19.02;64.95
31044;BME280;17710;52.520;13.352;2022-09-09T04:34:07;100733.84;;;19.20;64.72
31044;BME280;17710;52.520;13.352;2022-09-09T04:36:33;100730.63;;;19.27;64.31
31044;BME280;17710;52.520;13.352;2022-09-09T04:39:00;100741.38;;;19.02;64.71
31044;BME280;17710;52.520;13.352;2022-09-09T04:41:27;100739.66;;;19.01;65.21
31044;BME280;17710;52.520;13.352;2022-09-09T04:43:58;100739.13;;;19.08;64.77
31044;BME280;17710;52.520;13.352;2022-09-09T04:46:25;100744.34;;;19.10;64.66
31044;BME280;17710;52.520;13.352;2022-09-09T04:48:53;100749.50;;;19.13;64.19
31044;BME280;17710;52.520;13.352;2022-09-09T04:51:19;100738.59;;;19.16;64.61
31044;BME280;17710;52.520;13.352;2022-09-09T04:53:46;100742.31;;;19.26;63.51
31044;BME280;17710;52.520;13.352;2022-09-09T04:56:17;100758.25;;;19.40;63.74
31044;BME280;17710;52.520;13.352;2022-09-09T04:58:46;100754.84;;;19.26;64.25
31044;BME280;17710;52.520;13.352;2022-09-09T05:01:16;100756.88;;;19.35;63.67
31044;BME280;17710;52.520;13.352;2022-09-09T05:03:43;100758.16;;;19.42;63.12
31044;BME280;17710;52.520;13.352;2022-09-09T05:06:12;100753.75;;;19.41;63.62
31044;BME280;17710;52.520;13.352;2022-09-09T05:08:41;100762.53;;;19.30;63.54
31044;BME280;17710;52.520;13.352;2022-09-09T05:11:14;100768.88;;;19.55;63.13
31044;BME280;17710;52.520;13.352;2022-09-09T05:13:42;100771.28;;;19.70;62.71
31044;BME280;17710;52.520;13.352;2022-09-09T05:16:11;100763.31;;;19.81;62.26
31044;BME280;17710;52.520;13.352;2022-09-09T05:18:43;100764.19;;;19.82;62.45
31044;BME280;17710;52.520;13.352;2022-09-09T05:21:11;100760.44;;;19.96;62.00
31044;BME280;17710;52.520;13.352;2022-09-09T05:23:39;100756.41;;;19.90;61.89
31044;BME280;17710;52.520;13.352;2022-09-09T05:26:08;100760.09;;;20.24;61.42
31044;BME280;17710;52.520;13.352;2022-09-09T05:28:37;100752.81;;;20.26;61.31
31044;BME280;17710;52.520;13.352;2022-09-09T05:31:05;100754.34;;;20.17;60.64
31044;BME280;17710;52.520;13.352;2022-09-09T05:33:33;100756.34;;;20.03;61.09
31044;BME280;17710;52.520;13.352;2022-09-09T05:36:03;100760.97;;;20.24;61.02
31044;BME280;17710;52.520;13.352;2022-09-09T05:38:31;100756.09;;;20.29;60.66
31044;BME280;17710;52.520;13.352;2022-09-09T05:40:58;100762.50;;;20.16;60.90
31044;BME280;17710;52.520;13.352;2022-09-09T05:43:26;100760.47;;;20.43;60.40
31044;BME280;17710;52.520;13.352;2022-09-09T05:46:00;100757.81;;;20.30;60.41
31044;BME280;17710;52.520;13.352;2022-09-09T05:48:28;100758.72;;;20.07;60.91
31044;BME280;17710;52.520;13.352;2022-09-09T05:50:57;100760.63;;;20.53;60.18
31044;BME280;17710;52.520;13.352;2022-09-09T05:53:26;100761.69;;;20.85;59.05
31044;BME280;17710;52.520;13.352;2022-09-09T05:55:59;100766.19;;;20.85;59.38
31044;BME280;17710;52.520;13.352;2022-09-09T05:58:25;100768.72;;;20.75;59.51
31044;BME280;17710;52.520;13.352;2022-09-09T06:00:52;100770.78;;;20.60;60.24
31044;BME280;17710;52.520;13.352;2022-09-09T06:03:19;100771.13;;;20.56;60.17
31044;BME280;17710;52.520;13.352;2022-09-09T06:05:59;100772.75;;;20.69;59.51
31044;BME280;17710;52.520;13.352;2022-09-09T06:08:28;100773.53;;;21.05;58.65
31044;BME280;17710;52.520;13.352;2022-09-09T06:11:00;100781.72;;;20.92;58.74
31044;BME280;17710;52.520;13.352;2022-09-09T06:13:27;100786.06;;;20.82;58.88
31044;BME280;17710;52.520;13.352;2022-09-09T06:15:57;100786.53;;;20.76;59.12
31044;BME280;17710;52.520;13.352;2022-09-09T06:18:24;100785.56;;;20.66;59.14
31044;BME280;17710;52.520;13.352;2022-09-09T06:20:58;100790.53;;;21.05;58.39
31044;BME280;17710;52.520;13.352;2022-09-09T06:23:27;100781.53;;;21.18;57.80
31044;BME280;17710;52.520;13.352;2022-09-09T06:26:01;100782.63;;;21.26;57.16
31044;BME280;17710;52.520;13.352;2022-09-09T06:28:27;100783.91;;;21.09;57.96
31044;BME280;17710;52.520;13.352;2022-09-09T06:30:57;100781.88;;;21.35;57.03
31044;BME280;17710;52.520;13.352;2022-09-09T06:33:30;100786.16;;;21.49;56.92
31044;BME280;17710;52.520;13.352;2022-09-09T06:35:57;100788.75;;;21.39;57.35
31044;BME280;17710;52.520;13.352;2022-09-09T06:38:28;100791.66;;;21.47;56.98
31044;BME280;17710;52.520;13.352;2022-09-09T06:40:55;100799.88;;;21.46;57.36
31044;BME280;17710;52.520;13.352;2022-09-09T06:43:23;100803.22;;;21.03;57.91
31044;BME280;17710;52.520;13.352;2022-09-09T06:45:54;100800.03;;;20.98;58.41
31044;BME280;17710;52.520;13.352;2022-09-09T06:48:20;100799.78;;;21.01;59.10
31044;BME280;17710;52.520;13.352;2022-09-09T06:50:47;100797.66;;;21.18;58.71
31044;BME280;17710;52.520;13.352;2022-09-09T06:53:16;100798.69;;;21.15;58.86
31044;BME280;17710;52.520;13.352;2022-09-09T06:55:53;100800.94;;;21.43;57.38
31044;BME280;17710;52.520;13.352;2022-09-09T06:58:20;100804.72;;;21.97;56.86
31044;BME280;17710;52.520;13.352;2022-09-09T07:00:47;100790.28;;;22.61;54.68
31044;BME280;17710;52.520;13.352;2022-09-09T07:03:15;100783.44;;;22.37;54.84
31044;BME280;17710;52.520;13.352;2022-09-09T07:05:43;100789.03;;;22.45;54.28
31044;BME280;17710;52.520;13.352;2022-09-09T07:08:12;100787.25;;;22.55;53.17
31044;BME280;17710;52.520;13.352;2022-09-09T07:10:39;100791.97;;;22.74;53.62
31044;BME280;17710;52.520;13.352;2022-09-09T07:13:07;100790.28;;;22.61;53.42
31044;BME280;17710;52.520;13.352;2022-09-09T07:15:35;100797.75;;;22.90;53.14
31044;BME280;17710;52.520;13.352;2022-09-09T07:18:01;100798.25;;;23.04;52.99
31044;BME280;17710;52.520;13.352;2022-09-09T07:20:31;100799.09;;;23.05;52.86
31044;BME280;17710;52.520;13.352;2022-09-09T07:22:57;100793.16;;;23.11;52.04
31044;BME280;17710;52.520;13.352;2022-09-09T07:25:24;100794.31;;;23.39;51.73
31044;BME280;17710;52.520;13.352;2022-09-09T07:27:53;100797.13;;;23.37;51.22
31044;BME280;17710;52.520;13.352;2022-09-09T07:30:21;100795.59;;;23.65;50.69
31044;BME280;17710;52.520;13.352;2022-09-09T07:32:50;100791.91;;;23.66;50.74
31044;BME280;17710;52.520;13.352;2022-09-09T07:35:16;100801.53;;;24.09;49.09
31044;BME280;17710;52.520;13.352;2022-09-09T07:37:43;100797.38;;;24.05;48.41
31044;BME280;17710;52.520;13.352;2022-09-09T07:40:10;100799.66;;;24.09;47.88
31044;BME280;17710;52.520;13.352;2022-09-09T07:42:36;100805.47;;;23.95;48.51
31044;BME280;17710;52.520;13.352;2022-09-09T07:45:04;100805.84;;;24.21;48.77
31044;BME280;17710;52.520;13.352;2022-09-09T07:47:32;100805.53;;;24.24;47.90
31044;BME280;17710;52.520;13.352;2022-09-09T07:49:58;100808.66;;;24.29;48.06
31044;BME280;17710;52.520;13.352;2022-09-09T07:52:25;100802.28;;;24.20;47.67
31044;BME280;17710;52.520;13.352;2022-09-09T07:54:52;100804.94;;;24.11;48.35
31044;BME280;17710;52.520;13.352;2022-09-09T07:57:19;100803.56;;;24.36;48.35
31044;BME280;17710;52.520;13.352;2022-09-09T07:59:45;100804.84;;;24.60;47.80
31044;BME280;17710;52.520;13.352;2022-09-09T08:02:15;100809.13;;;24.53;48.18
31044;BME280;17710;52.520;13.352;2022-09-09T08:04:43;100817.63;;;24.87;48.24
31044;BME280;17710;52.520;13.352;2022-09-09T08:07:11;100809.97;;;24.63;48.07
31044;BME280;17710;52.520;13.352;2022-09-09T08:09:38;100813.66;;;24.72;47.41
31044;BME280;17710;52.520;13.352;2022-09-09T08:12:08;100819.06;;;25.57;45.89
31044;BME280;17710;52.520;13.352;2022-09-09T08:14:34;100811.84;;;25.75;45.40
31044;BME280;17710;52.520;13.352;2022-09-09T08:17:01;100830.53;;;25.69;45.57
31044;BME280;17710;52.520;13.352;2022-09-09T08:19:27;100822.47;;;25.59;45.75
31044;BME280;17710;52.520;13.352;2022-09-09T08:22:00;100820.22;;;25.45;45.67
31044;BME280;17710;52.520;13.352;2022-09-09T08:24:28;100832.34;;;25.78;45.88
31044;BME280;17710;52.520;13.352;2022-09-09T08:26:54;100823.78;;;25.36;46.03
31044;BME280;17710;52.520;13.352;2022-09-09T08:29:22;100821.19;;;25.07;46.73
31044;BME280;17710;52.520;13.352;2022-09-09T08:31:54;100822.91;;;24.70;47.09
31044;BME280;17710;52.520;13.352;2022-09-09T08:34:22;100818.94;;;24.54;47.78
31044;BME280;17710;52.520;13.352;2022-09-09T08:36:51;100827.03;;;24.93;47.92
31044;BME280;17710;52.520;13.352;2022-09-09T08:39:20;100833.44;;;24.92;47.50
31044;BME280;17710;52.520;13.352;2022-09-09T08:41:58;100825.56;;;24.89;47.14
31044;BME280;17710;52.520;13.352;2022-09-09T08:44:40;100831.69;;;25.10;46.07
31044;BME280;17710;52.520;13.352;2022-09-09T08:47:13;100830.16;;;24.98;46.91
31044;BME280;17710;52.520;13.352;2022-09-09T08:49:54;100828.59;;;24.95;47.33
31044;BME280;17710;52.520;13.352;2022-09-09T08:52:27;100834.84;;;24.96;46.87
31044;BME280;17710;52.520;13.352;2022-09-09T08:54:57;100837.00;;;24.92;46.80
31044;BME280;17710;52.520;13.352;2022-09-09T08:57:26;100834.84;;;24.67;46.95
31044;BME280;17710;52.520;13.352;2022-09-09T08:59:58;100830.88;;;24.71;46.92
31044;BME280;17710;52.520;13.352;2022-09-09T09:02:27;100831.00;;;24.79;46.70
31044;BME280;17710;52.520;13.352;2022-09-09T09:05:07;100831.69;;;24.81;46.53
31044;BME280;17710;52.520;13.352;2022-09-09T09:07:46;100830.88;;;25.00;46.19
31044;BME280;17710;52.520;13.352;2022-09-09T09:10:31;100831.69;;;24.81;46.41
31044;BME280;17710;52.520;13.352;2022-09-09T09:13:02;100835.16;;;24.93;46.53
31044;BME280;17710;52.520;13.352;2022-09-09T09:15:31;100839.25;;;25.07;45.94
31044;BME280;17710;52.520;13.352;2022-09-09T09:18:02;100839.41;;;24.86;46.23
31044;BME280;17710;52.520;13.352;2022-09-09T09:20:34;100847.22;;;25.55;45.56
31044;BME280;17710;52.520;13.352;2022-09-09T09:23:09;100842.34;;;25.68;45.15
31044;BME280;17710;52.520;13.352;2022-09-09T09:25:44;100838.31;;;25.35;45.17
31044;BME280;17710;52.520;13.352;2022-09-09T09:28:18;100830.81;;;25.93;43.85
31044;BME280;17710;52.520;13.352;2022-09-09T09:30:52;100828.94;;;26.31;43.85
31044;BME280;17710;52.520;13.352;2022-09-09T09:33:27;100830.28;;;27.06;42.24
31044;BME280;17710;52.520;13.352;2022-09-09T09:35:59;100825.28;;;26.75;42.49
31044;BME280;17710;52.520;13.352;2022-09-09T09:38:29;100822.41;;;27.20;41.95
31044;BME280;17710;52.520;13.352;2022-09-09T09:40:58;100829.06;;;26.82;41.88
31044;BME280;17710;52.520;13.352;2022-09-09T09:43:28;100824.75;;;27.15;41.62
31044;BME280;17710;52.520;13.352;2022-09-09T09:45:57;100827.47;;;27.15;41.38
31044;BME280;17710;52.520;13.352;2022-09-09T09:48:25;100832.00;;;26.53;41.82
31044;BME280;17710;52.520;13.352;2022-09-09T09:50:53;100830.09;;;26.64;42.20
31044;BME280;17710;52.520;13.352;2022-09-09T09:53:24;100827.97;;;25.95;43.58
31044;BME280;17710;52.520;13.352;2022-09-09T09:55:56;100824.22;;;26.05;43.54
31044;BME280;17710;52.520;13.352;2022-09-09T09:58:26;100815.44;;;25.94;43.83
31044;BME280;17710;52.520;13.352;2022-09-09T10:00:55;100824.97;;;26.25;43.23
31044;BME280;17710;52.520;13.352;2022-09-09T10:03:24;100825.13;;;26.41;42.53
31044;BME280;17710;52.520;13.352;2022-09-09T10:05:53;100824.72;;;26.54;42.15
31044;BME280;17710;52.520;13.352;2022-09-09T10:08:22;100819.81;;;26.32;42.38
31044;BME280;17710;52.520;13.352;2022-09-09T10:11:00;100818.94;;;26.04;43.36
31044;BME280;17710;52.520;13.352;2022-09-09T10:13:38;100828.03;;;25.85;43.99
31044;BME280;17710;52.520;13.352;2022-09-09T10:16:17;100829.22;;;26.00;44.06
31044;BME280;17710;52.520;13.352;2022-09-09T10:18:57;100822.41;;;26.41;42.85
31044;BME280;17710;52.520;13.352;2022-09-09T10:21:43;100822.94;;;26.80;42.00
31044;BME280;17710;52.520;13.352;2022-09-09T10:24:28;100832.00;;;26.36;41.78
31044;BME280;17710;52.520;13.352;2022-09-09T10:27:04;100829.44;;;26.52;42.54
31044;BME280;17710;52.520;13.352;2022-09-09T10:29:51;100827.94;;;26.32;42.79
31044;BME280;17710;52.520;13.352;2022-09-09T10:32:40;100832.38;;;26.58;42.82
31044;BME280;17710;52.520;13.352;2022-09-09T10:35:12;100824.72;;;26.54;42.58
31044;BME280;17710;52.520;13.352;2022-09-09T10:37:55;100834.38;;;26.21;43.21
31044;BME280;17710;52.520;13.352;2022-09-09T10:40:32;100834.38;;;26.21;43.03
31044;BME280;17710;52.520;13.352;2022-09-09T10:43:07;100839.59;;;26.68;41.83
31044;BME280;17710;52.520;13.352;2022-09-09T10:45:43;100833.78;;;26.80;41.61
31044;BME280;17710;52.520;13.352;2022-09-09T10:48:27;100835.81;;;26.25;41.66
31044;BME280;17710;52.520;13.352;2022-09-09T10:51:05;100835.66;;;25.72;42.93
31044;BME280;17710;52.520;13.352;2022-09-09T10:53:46;100830.13;;;26.18;42.49
31044;BME280;17710;52.520;13.352;2022-09-09T10:56:18;100831.00;;;25.92;42.61
31044;BME280;17710;52.520;13.352;2022-09-09T10:58:54;100830.69;;;26.12;42.35
31044;BME280;17710;52.520;13.352;2022-09-09T11:01:32;100835.88;;;26.33;42.33
31044;BME280;17710;52.520;13.352;2022-09-09T11:04:13;100826.47;;;26.10;42.13
31044;BME280;17710;52.520;13.352;2022-09-09T11:06:47;100825.25;;;26.22;42.44
31044;BME280;17710;52.520;13.352;2022-09-09T11:09:22;100824.41;;;25.94;42.45
31044;BME280;17710;52.520;13.352;2022-09-09T11:11:52;100822.03;;;26.09;42.49
31044;BME280;17710;52.520;13.352;2022-09-09T11:14:28;100827.06;;;26.31;42.21
31044;BME280;17710;52.520;13.352;2022-09-09T11:17:02;100822.53;;;26.22;42.10
31044;BME280;17710;52.520;13.352;2022-09-09T11:19:33;100824.25;;;26.58;41.86
31044;BME280;17710;52.520;13.352;2022-09-09T11:22:02;100825.81;;;26.96;41.78
31044;BME280;17710;52.520;13.352;2022-09-09T11:24:36;100828.69;;;26.77;42.04
31044;BME280;17710;52.520;13.352;2022-09-09T11:27:10;100830.59;;;26.85;41.85
31044;BME280;17710;52.520;13.352;2022-09-09T11:35:38;100815.59;;;26.55;41.64
31044;BME280;17710;52.520;13.352;2022-09-09T11:38:16;100827.34;;;26.81;41.78
31044;BME280;17710;52.520;13.352;2022-09-09T11:40:44;100828.72;;;26.85;40.47
31044;BME280;17710;52.520;13.352;2022-09-09T11:43:13;100833.28;;;26.85;40.22
31044;BME280;17710;52.520;13.352;2022-09-09T11:45:43;100825.06;;;27.12;39.38
31044;BME280;17710;52.520;13.352;2022-09-09T11:48:31;100824.22;;;27.12;39.17
31044;BME280;17710;52.520;13.352;2022-09-09T11:51:10;100811.34;;;27.14;38.84
31044;BME280;17710;52.520;13.352;2022-09-09T11:53:48;100812.94;;;27.24;37.98
31044;BME280;17710;52.520;13.352;2022-09-09T11:56:25;100814.09;;;27.48;38.45
31044;BME280;17710;52.520;13.352;2022-09-09T11:59:04;100798.53;;;27.50;37.75
31044;BME280;17710;52.520;13.352;2022-09-09T12:01:36;100801.69;;;27.37;38.45
31044;BME280;17710;52.520;13.352;2022-09-09T12:04:29;100795.19;;;27.56;38.07
31044;BME280;17710;52.520;13.352;2022-09-09T12:06:59;100799.66;;;27.13;38.82
31044;BME280;17710;52.520;13.352;2022-09-09T12:09:41;100789.44;;;27.33;38.40
31044;BME280;17710;52.520;13.352;2022-09-09T12:12:28;100792.00;;;27.34;38.43
31044;BME280;17710;52.520;13.352;2022-09-09T12:17:44;100776.84;;;27.58;37.40
31044;BME280;17710;52.520;13.352;2022-09-09T12:20:16;100770.91;;;28.04;37.53
31044;BME280;17710;52.520;13.352;2022-09-09T12:22:51;100772.38;;;27.91;36.77
31044;BME280;17710;52.520;13.352;2022-09-09T12:25:25;100767.81;;;27.91;37.56
31044;BME280;17710;52.520;13.352;2022-09-09T12:28:03;100768.09;;;28.22;37.83
31044;BME280;17710;52.520;13.352;2022-09-09T12:30:48;100768.09;;;28.30;36.85
31044;BME280;17710;52.520;13.352;2022-09-09T12:33:18;100768.28;;;28.29;36.43
31044;BME280;17710;52.520;13.352;2022-09-09T12:35:51;100776.00;;;28.07;37.18
31044;BME280;17710;52.520;13.352;2022-09-09T12:38:24;100771.03;;;27.87;36.22
31044;BME280;17710;52.520;13.352;2022-09-09T12:40:55;100765.38;;;27.72;36.54
31044;BME280;17710;52.520;13.352;2022-09-09T12:43:23;100767.09;;;27.73;37.04
31044;BME280;17710;52.520;13.352;2022-09-09T12:45:51;100760.63;;;27.74;36.39
31044;BME280;17710;52.520;13.352;2022-09-09T12:48:32;100755.53;;;27.63;36.63
31044;BME280;17710;52.520;13.352;2022-09-09T12:51:00;100751.41;;;27.59;37.22
31044;BME280;17710;52.520;13.352;2022-09-09T12:53:30;100760.09;;;27.62;37.68
31044;BME280;17710;52.520;13.352;2022-09-09T12:55:58;100754.19;;;27.83;37.83
31044;BME280;17710;52.520;13.352;2022-09-09T12:58:27;100760.34;;;27.93;36.51
31044;BME280;17710;52.520;13.352;2022-09-09T13:00:59;100769.47;;;27.84;36.66
31044;BME280;17710;52.520;13.352;2022-09-09T13:03:27;100771.16;;;27.69;36.83
31044;BME280;17710;52.520;13.352;2022-09-09T13:05:58;100773.03;;;27.76;37.60
31044;BME280;17710;52.520;13.352;2022-09-09T13:08:27;100780.28;;;27.34;38.55
31044;BME280;17710;52.520;13.352;2022-09-09T13:10:59;100780.66;;;27.73;37.64